sensor_id;sensor_type;location;lat;lon;timestamp;temperature;humidity
31074;DHT22;17730;53.552;9.940;2022-11-30T00:02:21;5.80;65.60
31074;DHT22;17730;53.552;9.940;2022-11-30T00:04:47;5.90;63.60
31074;DHT22;17730;53.552;9.940;2022-11-30T00:07:12;5.90;63.00
31074;DHT22;17730;53.552;9.940;2022-11-30T00:09:38;5.90;63.10
31074;DHT22;17730;53.552;9.940;2022-11-30T00:12:03;5.90;60.60
31074;DHT22;17730;53.552;9.940;2022-11-30T00:14:29;6.00;60.60
31074;DHT22;17730;53.552;9.940;2022-11-30T00:16:54;6.00;59.90
31074;DHT22;17730;53.552;9.940;2022-11-30T00:19:20;6.00;58.70
31074;DHT22;17730;53.552;9.940;2022-11-30T00:21:45;6.10;54.80
31074;DHT22;17730;53.552;9.940;2022-11-30T00:24:11;6.10;51.10
31074;DHT22;17730;53.552;9.940;2022-11-30T00:26:36;6.10;46.10
31074;DHT22;17730;53.552;9.940;2022-11-30T00:29:02;6.10;37.00
31074;DHT22;17730;53.552;9.940;2022-11-30T00:31:27;6.10;35.00
31074;DHT22;17730;53.552;9.940;2022-11-30T00:33:53;6.00;34.10
31074;DHT22;17730;53.552;9.940;2022-11-30T00:36:19;6.00;35.60
31074;DHT22;17730;53.552;9.940;2022-11-30T00:38:46;6.00;37.40
31074;DHT22;17730;53.552;9.940;2022-11-30T00:41:11;6.10;35.60
31074;DHT22;17730;53.552;9.940;2022-11-30T00:43:37;6.10;33.70
31074;DHT22;17730;53.552;9.940;2022-11-30T00:46:02;6.10;33.80
31074;DHT22;17730;53.552;9.940;2022-11-30T00:48:28;6.10;34.90
31074;DHT22;17730;53.552;9.940;2022-11-30T00:50:53;6.10;33.20
31074;DHT22;17730;53.552;9.940;2022-11-30T00:53:19;6.10;32.20
31074;DHT22;17730;53.552;9.940;2022-11-30T00:55:45;6.10;30.50
31074;DHT22;17730;53.552;9.940;2022-11-30T00:58:11;6.10;29.80
31074;DHT22;17730;53.552;9.940;2022-11-30T01:00:37;6.10;32.50
31074;DHT22;17730;53.552;9.940;2022-11-30T01:03:02;6.10;32.90
31074;DHT22;17730;53.552;9.940;2022-11-30T01:05:28;6.10;32.50
31074;DHT22;17730;53.552;9.940;2022-11-30T01:07:54;6.20;30.00
31074;DHT22;17730;53.552;9.940;2022-11-30T01:10:19;6.20;25.20
31074;DHT22;17730;53.552;9.940;2022-11-30T01:12:47;6.20;26.40
31074;DHT22;17730;53.552;9.940;2022-11-30T01:15:12;6.20;25.30
31074;DHT22;17730;53.552;9.940;2022-11-30T01:17:38;6.30;24.10
31074;DHT22;17730;53.552;9.940;2022-11-30T01:20:04;6.20;22.50
31074;DHT22;17730;53.552;9.940;2022-11-30T01:22:30;6.20;20.40
31074;DHT22;17730;53.552;9.940;2022-11-30T01:24:55;6.10;20.10
31074;DHT22;17730;53.552;9.940;2022-11-30T01:27:21;5.90;26.50
31074;DHT22;17730;53.552;9.940;2022-11-30T01:29:46;5.90;32.40
31074;DHT22;17730;53.552;9.940;2022-11-30T01:32:12;5.80;36.30
31074;DHT22;17730;53.552;9.940;2022-11-30T01:34:37;5.80;42.70
31074;DHT22;17730;53.552;9.940;2022-11-30T01:37:03;5.80;45.20
31074;DHT22;17730;53.552;9.940;2022-11-30T01:39:28;5.80;48.40
31074;DHT22;17730;53.552;9.940;2022-11-30T01:41:54;5.80;50.30
31074;DHT22;17730;53.552;9.940;2022-11-30T01:46:53;5.80;53.60
31074;DHT22;17730;53.552;9.940;2022-11-30T01:50:02;5.80;55.00
31074;DHT22;17730;53.552;9.940;2022-11-30T01:52:10;5.70;57.10
31074;DHT22;17730;53.552;9.940;2022-11-30T01:54:38;5.70;61.00
31074;DHT22;17730;53.552;9.940;2022-11-30T01:57:14;5.70;62.50
31074;DHT22;17730;53.552;9.940;2022-11-30T01:59:42;5.70;61.60
31074;DHT22;17730;53.552;9.940;2022-11-30T02:02:08;5.70;61.40
31074;DHT22;17730;53.552;9.940;2022-11-30T02:04:34;5.70;64.40
31074;DHT22;17730;53.552;9.940;2022-11-30T02:07:00;5.70;66.10
31074;DHT22;17730;53.552;9.940;2022-11-30T02:09:27;5.70;66.20
31074;DHT22;17730;53.552;9.940;2022-11-30T02:11:53;5.80;65.20
31074;DHT22;17730;53.552;9.940;2022-11-30T02:22:29;5.80;61.30
31074;DHT22;17730;53.552;9.940;2022-11-30T02:27:30;5.90;60.60
31074;DHT22;17730;53.552;9.940;2022-11-30T02:30:02;5.80;57.80
31074;DHT22;17730;53.552;9.940;2022-11-30T02:32:34;5.80;59.70
31074;DHT22;17730;53.552;9.940;2022-11-30T02:35:00;5.90;56.50
31074;DHT22;17730;53.552;9.940;2022-11-30T02:37:26;5.90;55.40
31074;DHT22;17730;53.552;9.940;2022-11-30T02:39:53;5.80;58.40
31074;DHT22;17730;53.552;9.940;2022-11-30T02:42:18;5.80;58.70
31074;DHT22;17730;53.552;9.940;2022-11-30T02:44:45;5.80;62.20
31074;DHT22;17730;53.552;9.940;2022-11-30T02:47:14;5.70;62.10
31074;DHT22;17730;53.552;9.940;2022-11-30T02:52:06;5.70;67.80
31074;DHT22;17730;53.552;9.940;2022-11-30T02:54:33;5.70;68.90
31074;DHT22;17730;53.552;9.940;2022-11-30T02:56:58;5.70;67.90
31074;DHT22;17730;53.552;9.940;2022-11-30T02:59:24;5.70;70.50
31074;DHT22;17730;53.552;9.940;2022-11-30T03:01:49;5.70;71.90
31074;DHT22;17730;53.552;9.940;2022-11-30T03:04:15;5.70;72.90
31074;DHT22;17730;53.552;9.940;2022-11-30T03:06:41;5.70;71.30
31074;DHT22;17730;53.552;9.940;2022-11-30T03:09:06;5.70;72.40
31074;DHT22;17730;53.552;9.940;2022-11-30T03:11:32;5.70;73.80
31074;DHT22;17730;53.552;9.940;2022-11-30T03:13:58;5.70;73.20
31074;DHT22;17730;53.552;9.940;2022-11-30T03:16:23;5.70;69.60
31074;DHT22;17730;53.552;9.940;2022-11-30T03:18:49;5.80;72.50
31074;DHT22;17730;53.552;9.940;2022-11-30T03:21:14;5.80;71.50
31074;DHT22;17730;53.552;9.940;2022-11-30T03:23:40;5.80;66.80
31074;DHT22;17730;53.552;9.940;2022-11-30T03:26:06;5.80;65.70
31074;DHT22;17730;53.552;9.940;2022-11-30T03:28:32;5.80;66.90
31074;DHT22;17730;53.552;9.940;2022-11-30T03:30:58;5.80;66.40
31074;DHT22;17730;53.552;9.940;2022-11-30T03:33:24;5.80;67.20
31074;DHT22;17730;53.552;9.940;2022-11-30T03:35:59;5.80;67.60
31074;DHT22;17730;53.552;9.940;2022-11-30T03:38:25;5.70;66.10
31074;DHT22;17730;53.552;9.940;2022-11-30T03:40:57;5.70;71.10
31074;DHT22;17730;53.552;9.940;2022-11-30T03:43:23;5.70;73.60
31074;DHT22;17730;53.552;9.940;2022-11-30T03:45:49;5.70;74.00
31074;DHT22;17730;53.552;9.940;2022-11-30T03:48:14;5.70;77.70
31074;DHT22;17730;53.552;9.940;2022-11-30T03:50:40;5.70;80.40
31074;DHT22;17730;53.552;9.940;2022-11-30T03:53:06;5.60;81.50
31074;DHT22;17730;53.552;9.940;2022-11-30T03:55:31;5.70;84.80
31074;DHT22;17730;53.552;9.940;2022-11-30T03:57:57;5.60;88.40
31074;DHT22;17730;53.552;9.940;2022-11-30T04:00:22;5.60;90.40
31074;DHT22;17730;53.552;9.940;2022-11-30T04:02:48;5.60;91.40
31074;DHT22;17730;53.552;9.940;2022-11-30T04:05:13;5.60;92.40
31074;DHT22;17730;53.552;9.940;2022-11-30T04:07:39;5.50;94.60
31074;DHT22;17730;53.552;9.940;2022-11-30T04:10:05;5.50;95.70
31074;DHT22;17730;53.552;9.940;2022-11-30T04:12:30;5.50;96.90
31074;DHT22;17730;53.552;9.940;2022-11-30T04:14:56;5.50;98.00
31074;DHT22;17730;53.552;9.940;2022-11-30T04:17:21;5.50;98.60
31074;DHT22;17730;53.552;9.940;2022-11-30T04:19:47;5.60;99.10
31074;DHT22;17730;53.552;9.940;2022-11-30T04:22:12;5.50;99.90
31074;DHT22;17730;53.552;9.940;2022-11-30T04:24:38;5.50;99.90
31074;DHT22;17730;53.552;9.940;2022-11-30T04:27:03;5.50;99.90
31074;DHT22;17730;53.552;9.940;2022-11-30T04:29:29;5.50;99.40
31074;DHT22;17730;53.552;9.940;2022-11-30T04:31:54;5.50;99.90
31074;DHT22;17730;53.552;9.940;2022-11-30T04:34:20;5.50;99.90
31074;DHT22;17730;53.552;9.940;2022-11-30T04:36:45;5.50;99.90
31074;DHT22;17730;53.552;9.940;2022-11-30T04:39:11;5.50;99.90
31074;DHT22;17730;53.552;9.940;2022-11-30T04:41:36;5.50;99.90
31074;DHT22;17730;53.552;9.940;2022-11-30T04:44:02;5.50;99.90
31074;DHT22;17730;53.552;9.940;2022-11-30T04:46:27;5.60;99.90
31074;DHT22;17730;53.552;9.940;2022-11-30T04:48:53;5.60;99.90
31074;DHT22;17730;53.552;9.940;2022-11-30T04:51:19;5.60;99.90
31074;DHT22;17730;53.552;9.940;2022-11-30T04:53:44;5.60;99.90
31074;DHT22;17730;53.552;9.940;2022-11-30T04:56:10;5.60;99.90
31074;DHT22;17730;53.552;9.940;2022-11-30T04:58:36;5.60;99.90
31074;DHT22;17730;53.552;9.940;2022-11-30T05:01:03;5.60;99.90
31074;DHT22;17730;53.552;9.940;2022-11-30T05:03:28;5.70;99.90
31074;DHT22;17730;53.552;9.940;2022-11-30T05:05:54;5.60;99.90
31074;DHT22;17730;53.552;9.940;2022-11-30T05:08:19;5.60;99.90
31074;DHT22;17730;53.552;9.940;2022-11-30T05:10:45;5.60;99.90
31074;DHT22;17730;53.552;9.940;2022-11-30T05:13:15;5.60;99.90
31074;DHT22;17730;53.552;9.940;2022-11-30T05:15:40;5.60;99.90
31074;DHT22;17730;53.552;9.940;2022-11-30T05:18:06;5.50;99.90
31074;DHT22;17730;53.552;9.940;2022-11-30T05:20:31;5.60;99.90
31074;DHT22;17730;53.552;9.940;2022-11-30T05:22:57;5.60;99.90
31074;DHT22;17730;53.552;9.940;2022-11-30T05:25:22;5.60;99.90
31074;DHT22;17730;53.552;9.940;2022-11-30T05:27:48;5.60;99.90
31074;DHT22;17730;53.552;9.940;2022-11-30T05:30:13;5.60;99.90
31074;DHT22;17730;53.552;9.940;2022-11-30T05:32:39;5.60;99.90
31074;DHT22;17730;53.552;9.940;2022-11-30T05:35:05;5.70;99.90
31074;DHT22;17730;53.552;9.940;2022-11-30T05:37:30;5.70;99.90
31074;DHT22;17730;53.552;9.940;2022-11-30T05:39:56;5.70;99.90
31074;DHT22;17730;53.552;9.940;2022-11-30T05:42:21;5.70;99.90
31074;DHT22;17730;53.552;9.940;2022-11-30T05:44:47;5.60;99.90
31074;DHT22;17730;53.552;9.940;2022-11-30T05:47:12;5.70;99.90
31074;DHT22;17730;53.552;9.940;2022-11-30T05:49:38;5.70;99.90
31074;DHT22;17730;53.552;9.940;2022-11-30T05:52:04;5.70;99.90
31074;DHT22;17730;53.552;9.940;2022-11-30T05:54:29;5.70;99.90
31074;DHT22;17730;53.552;9.940;2022-11-30T05:56:55;5.70;99.90
31074;DHT22;17730;53.552;9.940;2022-11-30T05:59:20;5.70;99.90
31074;DHT22;17730;53.552;9.940;2022-11-30T06:01:46;5.70;99.90
31074;DHT22;17730;53.552;9.940;2022-11-30T06:04:11;5.70;99.30
31074;DHT22;17730;53.552;9.940;2022-11-30T06:06:37;5.70;98.90
31074;DHT22;17730;53.552;9.940;2022-11-30T06:09:02;5.70;98.80
31074;DHT22;17730;53.552;9.940;2022-11-30T06:11:28;5.70;99.60
31074;DHT22;17730;53.552;9.940;2022-11-30T06:13:53;5.70;99.90
31074;DHT22;17730;53.552;9.940;2022-11-30T06:16:19;5.70;99.90
31074;DHT22;17730;53.552;9.940;2022-11-30T06:18:44;5.70;99.90
31074;DHT22;17730;53.552;9.940;2022-11-30T06:21:10;5.70;99.90
31074;DHT22;17730;53.552;9.940;2022-11-30T06:23:36;5.70;98.70
31074;DHT22;17730;53.552;9.940;2022-11-30T06:26:05;5.70;99.80
31074;DHT22;17730;53.552;9.940;2022-11-30T06:28:31;5.70;99.90
31074;DHT22;17730;53.552;9.940;2022-11-30T06:30:57;5.70;99.70
31074;DHT22;17730;53.552;9.940;2022-11-30T06:33:23;5.70;99.20
31074;DHT22;17730;53.552;9.940;2022-11-30T06:35:48;5.80;99.20
31074;DHT22;17730;53.552;9.940;2022-11-30T06:38:14;5.80;98.10
31074;DHT22;17730;53.552;9.940;2022-11-30T06:40:39;5.70;97.00
31074;DHT22;17730;53.552;9.940;2022-11-30T06:43:05;5.70;97.00
31074;DHT22;17730;53.552;9.940;2022-11-30T06:45:31;5.70;97.50
31074;DHT22;17730;53.552;9.940;2022-11-30T06:47:56;5.70;98.50
31074;DHT22;17730;53.552;9.940;2022-11-30T06:50:22;5.70;98.80
31074;DHT22;17730;53.552;9.940;2022-11-30T06:52:48;5.70;99.70
31074;DHT22;17730;53.552;9.940;2022-11-30T06:55:14;5.80;99.50
31074;DHT22;17730;53.552;9.940;2022-11-30T06:57:39;5.80;99.10
31074;DHT22;17730;53.552;9.940;2022-11-30T07:00:05;5.80;99.30
31074;DHT22;17730;53.552;9.940;2022-11-30T07:02:32;5.70;99.20
31074;DHT22;17730;53.552;9.940;2022-11-30T07:04:57;5.70;99.90
31074;DHT22;17730;53.552;9.940;2022-11-30T07:07:23;5.70;99.90
31074;DHT22;17730;53.552;9.940;2022-11-30T07:09:49;5.70;99.90
31074;DHT22;17730;53.552;9.940;2022-11-30T07:12:15;5.70;99.90
31074;DHT22;17730;53.552;9.940;2022-11-30T07:14:41;5.70;99.90
31074;DHT22;17730;53.552;9.940;2022-11-30T07:17:06;5.70;99.90
31074;DHT22;17730;53.552;9.940;2022-11-30T07:19:32;5.70;99.90
31074;DHT22;17730;53.552;9.940;2022-11-30T07:22:00;5.70;99.90
31074;DHT22;17730;53.552;9.940;2022-11-30T07:24:26;5.70;99.90
31074;DHT22;17730;53.552;9.940;2022-11-30T07:27:10;5.70;99.90
31074;DHT22;17730;53.552;9.940;2022-11-30T07:29:36;5.70;99.90
31074;DHT22;17730;53.552;9.940;2022-11-30T07:32:02;5.70;99.90
31074;DHT22;17730;53.552;9.940;2022-11-30T07:34:27;5.70;99.90
31074;DHT22;17730;53.552;9.940;2022-11-30T07:36:53;5.60;99.90
31074;DHT22;17730;53.552;9.940;2022-11-30T07:39:18;5.60;99.90
31074;DHT22;17730;53.552;9.940;2022-11-30T07:41:44;5.70;99.90
31074;DHT22;17730;53.552;9.940;2022-11-30T07:44:09;5.70;99.90
31074;DHT22;17730;53.552;9.940;2022-11-30T07:46:36;5.70;99.70
31074;DHT22;17730;53.552;9.940;2022-11-30T07:49:02;5.80;99.90
31074;DHT22;17730;53.552;9.940;2022-11-30T07:51:27;5.90;99.90
31074;DHT22;17730;53.552;9.940;2022-11-30T07:53:56;5.90;95.10
31074;DHT22;17730;53.552;9.940;2022-11-30T07:56:22;5.90;91.90
31074;DHT22;17730;53.552;9.940;2022-11-30T07:58:48;5.90;90.00
31074;DHT22;17730;53.552;9.940;2022-11-30T08:01:15;5.90;89.50
31074;DHT22;17730;53.552;9.940;2022-11-30T08:03:41;5.90;89.20
31074;DHT22;17730;53.552;9.940;2022-11-30T08:06:13;5.90;89.50
31074;DHT22;17730;53.552;9.940;2022-11-30T08:08:40;5.80;90.20
31074;DHT22;17730;53.552;9.940;2022-11-30T08:11:07;5.80;91.50
31074;DHT22;17730;53.552;9.940;2022-11-30T08:13:33;5.80;90.60
31074;DHT22;17730;53.552;9.940;2022-11-30T08:16:02;5.80;90.70
31074;DHT22;17730;53.552;9.940;2022-11-30T08:18:28;5.80;91.60
31074;DHT22;17730;53.552;9.940;2022-11-30T08:20:57;5.80;91.50
31074;DHT22;17730;53.552;9.940;2022-11-30T08:23:24;5.80;91.50
31074;DHT22;17730;53.552;9.940;2022-11-30T08:25:50;5.90;92.20
31074;DHT22;17730;53.552;9.940;2022-11-30T08:28:15;5.90;91.40
31074;DHT22;17730;53.552;9.940;2022-11-30T08:30:41;5.90;91.30
31074;DHT22;17730;53.552;9.940;2022-11-30T08:33:10;5.90;89.20
31074;DHT22;17730;53.552;9.940;2022-11-30T08:35:35;5.90;84.30
31074;DHT22;17730;53.552;9.940;2022-11-30T08:38:01;5.90;81.40
31074;DHT22;17730;53.552;9.940;2022-11-30T08:40:27;5.90;80.40
31074;DHT22;17730;53.552;9.940;2022-11-30T08:42:52;5.90;78.80
31074;DHT22;17730;53.552;9.940;2022-11-30T08:45:18;5.90;79.00
31074;DHT22;17730;53.552;9.940;2022-11-30T08:47:43;5.90;78.50
31074;DHT22;17730;53.552;9.940;2022-11-30T08:50:09;5.90;75.70
31074;DHT22;17730;53.552;9.940;2022-11-30T08:52:34;5.90;75.70
31074;DHT22;17730;53.552;9.940;2022-11-30T08:55:00;6.00;76.00
31074;DHT22;17730;53.552;9.940;2022-11-30T08:57:26;6.00;70.00
31074;DHT22;17730;53.552;9.940;2022-11-30T08:59:51;5.90;70.60
31074;DHT22;17730;53.552;9.940;2022-11-30T09:02:17;5.90;68.30
31074;DHT22;17730;53.552;9.940;2022-11-30T09:04:43;5.90;68.40
31074;DHT22;17730;53.552;9.940;2022-11-30T09:07:09;5.80;69.90
31074;DHT22;17730;53.552;9.940;2022-11-30T09:09:35;5.90;72.40
31074;DHT22;17730;53.552;9.940;2022-11-30T09:12:01;5.90;74.10
31074;DHT22;17730;53.552;9.940;2022-11-30T09:14:27;5.90;73.10
31074;DHT22;17730;53.552;9.940;2022-11-30T09:16:53;6.00;65.80
31074;DHT22;17730;53.552;9.940;2022-11-30T09:19:18;6.00;62.90
31074;DHT22;17730;53.552;9.940;2022-11-30T09:21:45;6.00;59.90
31074;DHT22;17730;53.552;9.940;2022-11-30T09:24:11;5.90;60.20
31074;DHT22;17730;53.552;9.940;2022-11-30T09:26:36;6.00;58.00
31074;DHT22;17730;53.552;9.940;2022-11-30T09:29:02;6.00;58.20
31074;DHT22;17730;53.552;9.940;2022-11-30T09:31:28;6.00;57.30
31074;DHT22;17730;53.552;9.940;2022-11-30T09:33:54;6.00;58.80
31074;DHT22;17730;53.552;9.940;2022-11-30T09:36:20;6.00;57.40
31074;DHT22;17730;53.552;9.940;2022-11-30T09:38:46;6.00;58.20
31074;DHT22;17730;53.552;9.940;2022-11-30T09:46:06;6.00;61.10
31074;DHT22;17730;53.552;9.940;2022-11-30T09:51:46;6.00;61.30
31074;DHT22;17730;53.552;9.940;2022-11-30T09:54:23;6.00;57.60
31074;DHT22;17730;53.552;9.940;2022-11-30T09:57:03;6.00;56.70
31074;DHT22;17730;53.552;9.940;2022-11-30T09:59:37;6.00;55.90
31074;DHT22;17730;53.552;9.940;2022-11-30T10:02:13;6.00;54.90
31074;DHT22;17730;53.552;9.940;2022-11-30T10:04:39;6.00;58.50
31074;DHT22;17730;53.552;9.940;2022-11-30T10:12:27;6.00;58.10
31074;DHT22;17730;53.552;9.940;2022-11-30T10:25:24;6.10;43.20
31074;DHT22;17730;53.552;9.940;2022-11-30T10:27:54;6.20;44.30
31074;DHT22;17730;53.552;9.940;2022-11-30T10:30:28;6.10;42.00
31074;DHT22;17730;53.552;9.940;2022-11-30T10:32:56;6.10;43.30
31074;DHT22;17730;53.552;9.940;2022-11-30T10:37:49;6.10;44.10
31074;DHT22;17730;53.552;9.940;2022-11-30T10:40:17;6.10;47.10
31074;DHT22;17730;53.552;9.940;2022-11-30T10:42:45;6.10;51.00
31074;DHT22;17730;53.552;9.940;2022-11-30T10:45:16;6.10;53.60
31074;DHT22;17730;53.552;9.940;2022-11-30T10:48:06;6.10;54.40
31074;DHT22;17730;53.552;9.940;2022-11-30T10:50:29;6.00;56.50
31074;DHT22;17730;53.552;9.940;2022-11-30T10:52:56;6.10;58.00
31074;DHT22;17730;53.552;9.940;2022-11-30T10:55:27;6.00;63.40
31074;DHT22;17730;53.552;9.940;2022-11-30T10:57:53;6.00;66.90
31074;DHT22;17730;53.552;9.940;2022-11-30T11:00:20;6.00;72.10
31074;DHT22;17730;53.552;9.940;2022-11-30T11:02:49;6.00;75.20
31074;DHT22;17730;53.552;9.940;2022-11-30T11:05:17;6.10;72.30
31074;DHT22;17730;53.552;9.940;2022-11-30T11:07:53;6.10;67.70
31074;DHT22;17730;53.552;9.940;2022-11-30T11:10:22;6.00;68.80
31074;DHT22;17730;53.552;9.940;2022-11-30T11:12:49;6.00;71.00
31074;DHT22;17730;53.552;9.940;2022-11-30T11:15:20;6.00;71.10
31074;DHT22;17730;53.552;9.940;2022-11-30T11:17:46;6.00;69.70
31074;DHT22;17730;53.552;9.940;2022-11-30T11:22:56;6.10;71.20
31074;DHT22;17730;53.552;9.940;2022-11-30T11:25:32;6.10;62.20
31074;DHT22;17730;53.552;9.940;2022-11-30T11:28:06;6.10;60.50
31074;DHT22;17730;53.552;9.940;2022-11-30T11:30:33;6.30;68.10
31074;DHT22;17730;53.552;9.940;2022-11-30T11:33:00;6.20;52.10
31074;DHT22;17730;53.552;9.940;2022-11-30T11:35:34;6.20;49.80
31074;DHT22;17730;53.552;9.940;2022-11-30T11:38:00;6.20;49.10
31074;DHT22;17730;53.552;9.940;2022-11-30T11:40:25;6.10;59.50
31074;DHT22;17730;53.552;9.940;2022-11-30T11:42:51;6.00;66.60
31074;DHT22;17730;53.552;9.940;2022-11-30T11:45:19;6.00;74.20
31074;DHT22;17730;53.552;9.940;2022-11-30T11:47:46;6.00;76.20
31074;DHT22;17730;53.552;9.940;2022-11-30T11:52:45;6.00;76.40
31074;DHT22;17730;53.552;9.940;2022-11-30T11:55:17;6.00;76.50
31074;DHT22;17730;53.552;9.940;2022-11-30T11:57:48;6.00;77.00
31074;DHT22;17730;53.552;9.940;2022-11-30T12:00:17;6.00;75.70
31074;DHT22;17730;53.552;9.940;2022-11-30T12:05:13;5.90;87.10
31074;DHT22;17730;53.552;9.940;2022-11-30T12:07:41;5.90;86.40
31074;DHT22;17730;53.552;9.940;2022-11-30T12:12:35;5.90;92.00
31074;DHT22;17730;53.552;9.940;2022-11-30T12:15:01;5.90;90.70
31074;DHT22;17730;53.552;9.940;2022-11-30T12:20:10;5.90;80.20
31074;DHT22;17730;53.552;9.940;2022-11-30T12:25:23;6.30;97.50
31074;DHT22;17730;53.552;9.940;2022-11-30T12:45:27;6.10;80.00
31074;DHT22;17730;53.552;9.940;2022-11-30T12:48:12;6.20;90.40
31074;DHT22;17730;53.552;9.940;2022-11-30T12:50:43;6.30;69.10
31074;DHT22;17730;53.552;9.940;2022-11-30T12:53:14;6.40;79.50
31074;DHT22;17730;53.552;9.940;2022-11-30T13:03:47;6.40;45.10
31074;DHT22;17730;53.552;9.940;2022-11-30T13:06:22;6.20;47.50
31074;DHT22;17730;53.552;9.940;2022-11-30T13:09:04;6.20;58.20
31074;DHT22;17730;53.552;9.940;2022-11-30T13:11:35;6.10;71.80
31074;DHT22;17730;53.552;9.940;2022-11-30T13:14:03;6.10;81.00
31074;DHT22;17730;53.552;9.940;2022-11-30T13:16:30;6.00;90.50
31074;DHT22;17730;53.552;9.940;2022-11-30T13:19:01;6.00;93.00
31074;DHT22;17730;53.552;9.940;2022-11-30T13:21:29;6.00;94.50
31074;DHT22;17730;53.552;9.940;2022-11-30T13:24:05;6.00;95.60
31074;DHT22;17730;53.552;9.940;2022-11-30T13:26:42;6.00;94.70
31074;DHT22;17730;53.552;9.940;2022-11-30T13:31:49;5.90;98.40
31074;DHT22;17730;53.552;9.940;2022-11-30T13:36:47;5.90;99.90
31074;DHT22;17730;53.552;9.940;2022-11-30T13:41:39;5.80;99.90
31074;DHT22;17730;53.552;9.940;2022-11-30T13:44:19;5.80;99.90
31074;DHT22;17730;53.552;9.940;2022-11-30T13:46:49;5.90;99.90
31074;DHT22;17730;53.552;9.940;2022-11-30T13:49:19;5.90;99.90
31074;DHT22;17730;53.552;9.940;2022-11-30T13:51:45;5.90;99.90
31074;DHT22;17730;53.552;9.940;2022-11-30T13:59:45;5.80;99.90
31074;DHT22;17730;53.552;9.940;2022-11-30T14:10:34;5.90;99.90
31074;DHT22;17730;53.552;9.940;2022-11-30T14:13:01;5.90;99.90
31074;DHT22;17730;53.552;9.940;2022-11-30T14:23:06;6.00;99.90
31074;DHT22;17730;53.552;9.940;2022-11-30T14:25:33;5.90;99.50
31074;DHT22;17730;53.552;9.940;2022-11-30T14:27:59;5.80;99.90
31074;DHT22;17730;53.552;9.940;2022-11-30T14:30:27;5.80;99.90
31074;DHT22;17730;53.552;9.940;2022-11-30T14:32:56;5.80;99.90
31074;DHT22;17730;53.552;9.940;2022-11-30T14:35:26;5.80;99.90
31074;DHT22;17730;53.552;9.940;2022-11-30T14:37:53;5.80;99.90
31074;DHT22;17730;53.552;9.940;2022-11-30T14:40:21;5.80;99.90
31074;DHT22;17730;53.552;9.940;2022-11-30T14:45:20;5.70;99.90
31074;DHT22;17730;53.552;9.940;2022-11-30T14:47:49;5.70;99.90
31074;DHT22;17730;53.552;9.940;2022-11-30T14:50:20;5.80;99.90
31074;DHT22;17730;53.552;9.940;2022-11-30T15:00:43;5.80;99.90
31074;DHT22;17730;53.552;9.940;2022-11-30T15:05:43;5.70;99.90
31074;DHT22;17730;53.552;9.940;2022-11-30T15:08:12;5.70;99.90
31074;DHT22;17730;53.552;9.940;2022-11-30T15:10:39;5.70;99.90
31074;DHT22;17730;53.552;9.940;2022-11-30T15:13:05;5.70;99.90
31074;DHT22;17730;53.552;9.940;2022-11-30T15:15:31;5.70;99.90
31074;DHT22;17730;53.552;9.940;2022-11-30T15:17:57;5.70;99.90
31074;DHT22;17730;53.552;9.940;2022-11-30T15:22:50;5.60;99.90
31074;DHT22;17730;53.552;9.940;2022-11-30T15:25:16;5.60;99.90
31074;DHT22;17730;53.552;9.940;2022-11-30T15:27:43;5.60;99.90
31074;DHT22;17730;53.552;9.940;2022-11-30T15:30:12;5.60;99.90
31074;DHT22;17730;53.552;9.940;2022-11-30T15:32:38;5.60;99.90
31074;DHT22;17730;53.552;9.940;2022-11-30T15:35:03;5.50;99.90
31074;DHT22;17730;53.552;9.940;2022-11-30T15:37:30;5.60;99.90
31074;DHT22;17730;53.552;9.940;2022-11-30T15:39:57;5.60;99.90
31074;DHT22;17730;53.552;9.940;2022-11-30T15:42:30;5.60;99.90
31074;DHT22;17730;53.552;9.940;2022-11-30T15:45:09;5.70;99.90
31074;DHT22;17730;53.552;9.940;2022-11-30T15:47:36;5.70;99.90
31074;DHT22;17730;53.552;9.940;2022-11-30T15:50:15;5.80;99.90
31074;DHT22;17730;53.552;9.940;2022-11-30T15:52:44;5.70;99.90
31074;DHT22;17730;53.552;9.940;2022-11-30T15:57:58;5.70;99.90
31074;DHT22;17730;53.552;9.940;2022-11-30T16:00:24;5.70;99.90
31074;DHT22;17730;53.552;9.940;2022-11-30T16:03:05;5.70;99.90
31074;DHT22;17730;53.552;9.940;2022-11-30T16:05:31;5.70;99.90
31074;DHT22;17730;53.552;9.940;2022-11-30T16:07:56;5.80;99.90
31074;DHT22;17730;53.552;9.940;2022-11-30T16:10:26;5.80;99.90
31074;DHT22;17730;53.552;9.940;2022-11-30T16:12:53;5.70;99.90
31074;DHT22;17730;53.552;9.940;2022-11-30T16:15:29;5.70;99.90
31074;DHT22;17730;53.552;9.940;2022-11-30T16:17:56;5.70;99.90
31074;DHT22;17730;53.552;9.940;2022-11-30T16:20:22;5.60;99.90
31074;DHT22;17730;53.552;9.940;2022-11-30T16:22:49;5.60;99.90
31074;DHT22;17730;53.552;9.940;2022-11-30T16:25:18;5.60;99.90
31074;DHT22;17730;53.552;9.940;2022-11-30T16:27:44;5.60;99.90
31074;DHT22;17730;53.552;9.940;2022-11-30T16:30:12;5.60;99.90
31074;DHT22;17730;53.552;9.940;2022-11-30T16:32:38;5.60;99.90
31074;DHT22;17730;53.552;9.940;2022-11-30T16:35:10;5.50;99.90
31074;DHT22;17730;53.552;9.940;2022-11-30T16:37:41;5.50;99.90
31074;DHT22;17730;53.552;9.940;2022-11-30T16:40:06;5.60;99.90
31074;DHT22;17730;53.552;9.940;2022-11-30T16:42:32;5.60;99.90
31074;DHT22;17730;53.552;9.940;2022-11-30T16:44:57;5.60;99.90
31074;DHT22;17730;53.552;9.940;2022-11-30T16:47:23;5.60;99.90
31074;DHT22;17730;53.552;9.940;2022-11-30T16:49:48;5.60;99.90
31074;DHT22;17730;53.552;9.940;2022-11-30T16:52:14;5.60;99.90
31074;DHT22;17730;53.552;9.940;2022-11-30T16:54:40;5.70;99.90
31074;DHT22;17730;53.552;9.940;2022-11-30T16:57:06;5.60;99.90
31074;DHT22;17730;53.552;9.940;2022-11-30T16:59:32;5.60;99.90
31074;DHT22;17730;53.552;9.940;2022-11-30T17:01:58;5.70;99.90
31074;DHT22;17730;53.552;9.940;2022-11-30T17:04:24;5.70;99.90
31074;DHT22;17730;53.552;9.940;2022-11-30T17:06:51;5.70;99.90
31074;DHT22;17730;53.552;9.940;2022-11-30T17:09:17;5.80;99.90
31074;DHT22;17730;53.552;9.940;2022-11-30T17:11:43;5.80;99.90
31074;DHT22;17730;53.552;9.940;2022-11-30T17:14:11;5.70;99.90
31074;DHT22;17730;53.552;9.940;2022-11-30T17:16:37;5.70;99.90
31074;DHT22;17730;53.552;9.940;2022-11-30T17:19:03;5.70;99.90
31074;DHT22;17730;53.552;9.940;2022-11-30T17:21:29;5.70;99.90
31074;DHT22;17730;53.552;9.940;2022-11-30T17:23:55;5.60;99.90
31074;DHT22;17730;53.552;9.940;2022-11-30T17:26:21;5.60;99.90
31074;DHT22;17730;53.552;9.940;2022-11-30T17:28:46;5.60;99.90
31074;DHT22;17730;53.552;9.940;2022-11-30T17:31:12;5.60;99.90
31074;DHT22;17730;53.552;9.940;2022-11-30T17:33:38;5.60;99.90
31074;DHT22;17730;53.552;9.940;2022-11-30T17:36:04;5.60;99.90
31074;DHT22;17730;53.552;9.940;2022-11-30T17:38:31;5.60;99.90
31074;DHT22;17730;53.552;9.940;2022-11-30T17:40:57;5.60;99.90
31074;DHT22;17730;53.552;9.940;2022-11-30T17:43:22;5.60;99.90
31074;DHT22;17730;53.552;9.940;2022-11-30T17:45:48;5.60;99.90
31074;DHT22;17730;53.552;9.940;2022-11-30T17:48:13;5.60;99.90
31074;DHT22;17730;53.552;9.940;2022-11-30T17:50:40;5.70;99.90
31074;DHT22;17730;53.552;9.940;2022-11-30T17:53:06;5.70;99.90
31074;DHT22;17730;53.552;9.940;2022-11-30T17:55:32;5.80;99.90